createdAt,value
2022-07-26T00:04:44.785Z,21.84
2022-07-26T00:09:48.359Z,21.78
2022-07-26T00:14:50.713Z,21.75
2022-07-26T00:19:52.286Z,21.72
2022-07-26T00:24:53.876Z,21.75
2022-07-26T00:29:55.459Z,21.77
2022-07-26T00:34:57.024Z,21.76
2022-07-26T00:39:58.614Z,21.73
2022-07-26T00:45:00.720Z,21.71
2022-07-26T00:50:03.480Z,21.72
2022-07-26T00:55:07.548Z,21.68
2022-07-26T01:00:12.885Z,21.64
2022-07-26T01:05:14.672Z,21.63
2022-07-26T01:10:16.356Z,21.58
2022-07-26T01:15:18.785Z,21.53
2022-07-26T01:20:20.392Z,21.42
2022-07-26T01:25:43.159Z,21.28
2022-07-26T01:30:45.339Z,21.17
2022-07-26T01:35:47.147Z,20.98
2022-07-26T01:40:48.813Z,20.71
2022-07-26T01:45:51.745Z,20.38
2022-07-26T01:50:53.352Z,20.09
2022-07-26T01:55:58.109Z,19.83
2022-07-26T02:00:59.698Z,19.65
2022-07-26T02:06:03.280Z,19.54
2022-07-26T02:11:05.240Z,19.42
2022-07-26T02:16:15.828Z,19.43
2022-07-26T02:21:17.418Z,19.43
2022-07-26T02:26:19.461Z,19.42
2022-07-26T02:31:21.044Z,19.40
2022-07-26T02:36:29.859Z,19.36
2022-07-26T02:41:31.447Z,19.36
2022-07-26T02:46:33.131Z,19.39
2022-07-26T02:51:34.799Z,19.41
2022-07-26T02:56:36.426Z,19.38
2022-07-26T03:01:39.792Z,19.29
2022-07-26T03:06:41.419Z,19.19
2022-07-26T03:11:42.972Z,19.16
2022-07-26T03:16:44.507Z,19.11
2022-07-26T03:21:46.064Z,19.04
2022-07-26T03:26:47.608Z,18.95
2022-07-26T03:31:49.212Z,18.81
2022-07-26T03:36:51.087Z,18.68
2022-07-26T03:41:52.660Z,18.57
2022-07-26T03:46:54.217Z,18.48
2022-07-26T03:51:55.924Z,18.42
2022-07-26T03:56:57.517Z,18.37
2022-07-26T04:01:59.206Z,18.26
2022-07-26T04:07:03.197Z,18.14
2022-07-26T04:12:05.923Z,18.06
2022-07-26T04:17:07.567Z,18.04
2022-07-26T04:22:09.170Z,18.08
2022-07-26T04:27:10.744Z,18.13
2022-07-26T04:32:12.283Z,18.31
2022-07-26T04:37:13.967Z,18.53
2022-07-26T04:42:15.507Z,18.82
2022-07-26T04:47:17.040Z,19.15
2022-07-26T04:52:18.629Z,19.62
2022-07-26T04:57:20.256Z,19.98
2022-07-26T05:02:21.897Z,20.30
2022-07-26T05:07:23.535Z,20.84
2022-07-26T05:12:25.110Z,21.39
2022-07-26T05:17:27.162Z,21.81
2022-07-26T05:22:28.960Z,21.77
2022-07-26T05:27:30.728Z,21.73
2022-07-26T05:32:33.526Z,21.58
2022-07-26T05:37:36.187Z,21.55
2022-07-26T05:42:37.991Z,21.56
2022-07-26T05:47:40.038Z,21.73
2022-07-26T05:52:41.576Z,21.82
2022-07-26T05:57:47.322Z,22.32
2022-07-26T06:02:51.477Z,22.85
2022-07-26T06:07:53.186Z,22.91
2022-07-26T06:12:57.172Z,22.73
2022-07-26T06:17:58.749Z,22.62
2022-07-26T06:23:00.764Z,22.63
2022-07-26T06:28:11.795Z,22.43
2022-07-26T06:33:13.397Z,22.40
2022-07-26T06:38:14.959Z,22.70
2022-07-26T06:43:16.519Z,23.20
2022-07-26T06:48:18.124Z,23.98
2022-07-26T06:53:19.840Z,24.28
2022-07-26T06:58:21.461Z,24.33
2022-07-26T07:03:23.088Z,24.47
2022-07-26T07:08:24.860Z,24.52
2022-07-26T07:13:26.403Z,24.62
2022-07-26T07:18:28.055Z,24.87
2022-07-26T07:23:29.632Z,25.11
2022-07-26T07:28:33.735Z,25.17
2022-07-26T07:33:43.573Z,25.31
2022-07-26T07:38:54.691Z,25.42
2022-07-26T07:43:56.588Z,25.33
2022-07-26T07:49:01.639Z,25.41
2022-07-26T07:54:06.137Z,25.32
2022-07-26T07:59:10.365Z,25.42
2022-07-26T08:04:12.285Z,25.49
2022-07-26T08:09:13.987Z,25.34
2022-07-26T08:14:15.866Z,25.36
2022-07-26T08:19:19.525Z,25.37
2022-07-26T08:24:24.154Z,25.51
2022-07-26T08:29:25.950Z,25.58
2022-07-26T08:34:27.731Z,25.88
2022-07-26T08:39:29.582Z,25.52
2022-07-26T08:44:31.442Z,25.21
2022-07-26T08:49:34.002Z,25.44
2022-07-26T08:54:36.431Z,25.89
2022-07-26T08:59:38.304Z,26.00
2022-07-26T09:04:44.623Z,25.88
2022-07-26T09:09:59.120Z,26.18
2022-07-26T09:15:02.072Z,26.62
2022-07-26T09:20:13.169Z,26.81
2022-07-26T09:25:22.943Z,26.29
2022-07-26T09:30:24.532Z,25.80
2022-07-26T09:40:51.090Z,26.58
2022-07-26T09:46:05.552Z,26.48
2022-07-26T09:51:08.432Z,26.33
2022-07-26T09:56:10.093Z,26.29
2022-07-26T10:01:11.650Z,25.95
2022-07-26T10:06:13.263Z,26.15
2022-07-26T10:11:17.356Z,25.91
2022-07-26T10:16:30.764Z,26.18
2022-07-26T10:21:35.231Z,26.71
2022-07-26T10:26:38.307Z,27.52
2022-07-26T10:31:40.003Z,27.85
2022-07-26T10:36:41.591Z,27.82
2022-07-26T10:41:45.048Z,27.84
2022-07-26T10:47:08.196Z,27.94
2022-07-26T10:52:21.539Z,27.53
2022-07-26T10:57:24.090Z,26.90
2022-07-26T11:02:35.844Z,26.62
2022-07-26T11:07:58.684Z,26.68
2022-07-26T11:13:04.487Z,27.12
2022-07-26T11:18:10.737Z,27.25
2022-07-26T11:23:25.665Z,27.49
2022-07-26T11:28:27.352Z,27.71
2022-07-26T11:33:42.876Z,27.99
2022-07-26T11:38:54.696Z,28.19
2022-07-26T11:44:02.126Z,28.37
2022-07-26T11:49:06.218Z,28.51
2022-07-26T11:54:16.842Z,28.26
2022-07-26T11:59:19.180Z,27.95
2022-07-26T12:04:25.610Z,27.95
2022-07-26T12:09:36.004Z,28.24
2022-07-26T12:14:39.381Z,28.55
2022-07-26T12:19:42.158Z,28.88
2022-07-26T12:24:43.799Z,29.26
2022-07-26T12:29:50.487Z,29.00
2022-07-26T12:34:59.701Z,28.27
2022-07-26T12:40:06.659Z,28.13
2022-07-26T12:45:11.698Z,28.53
2022-07-26T12:50:15.091Z,28.76
2022-07-26T12:55:19.422Z,29.08
2022-07-26T13:00:21.092Z,29.16
2022-07-26T13:05:23.379Z,29.34
2022-07-26T13:10:34.214Z,29.40
2022-07-26T13:15:38.018Z,29.67
2022-07-26T13:20:39.805Z,30.01
2022-07-26T13:25:41.572Z,30.16
2022-07-26T13:30:52.203Z,29.94
2022-07-26T13:35:53.822Z,29.57
2022-07-26T13:40:56.483Z,28.95
2022-07-26T13:46:04.379Z,28.40
2022-07-26T13:51:06.368Z,28.09
2022-07-26T13:56:09.074Z,27.96
2022-07-26T14:01:10.695Z,27.61
2022-07-26T14:06:12.326Z,27.80
2022-07-26T14:11:14.195Z,27.95
2022-07-26T14:16:15.823Z,27.65
2022-07-26T14:21:17.443Z,27.65
2022-07-26T14:26:19.186Z,27.58
2022-07-26T14:31:20.892Z,27.50
2022-07-26T14:36:28.274Z,27.28
2022-07-26T14:41:29.933Z,27.23
2022-07-26T14:46:31.635Z,27.32
2022-07-26T14:51:33.313Z,27.15
2022-07-26T14:56:35.102Z,27.03
2022-07-26T15:01:36.705Z,27.05
2022-07-26T15:06:38.321Z,27.33
2022-07-26T15:11:40.212Z,27.38
2022-07-26T15:16:41.818Z,27.43
2022-07-26T15:21:43.444Z,27.59
2022-07-26T15:26:45.403Z,27.37
2022-07-26T15:31:49.283Z,26.98
2022-07-26T15:36:50.902Z,26.86
2022-07-26T15:41:52.629Z,26.75
2022-07-26T15:46:55.395Z,26.82
2022-07-26T15:51:56.999Z,26.66
2022-07-26T15:56:58.596Z,26.70
2022-07-26T16:02:00.478Z,26.88
2022-07-26T16:07:02.540Z,27.06
2022-07-26T16:12:06.245Z,26.85
2022-07-26T16:17:08.012Z,26.59
2022-07-26T16:22:09.680Z,26.31
2022-07-26T16:27:11.255Z,26.08
2022-07-26T16:32:15.438Z,25.98
2022-07-26T16:37:17.118Z,26.13
2022-07-26T16:42:18.837Z,26.21
2022-07-26T16:47:20.434Z,26.31
2022-07-26T16:52:22.847Z,26.34
2022-07-26T16:57:24.481Z,26.30
2022-07-26T17:02:26.111Z,26.27
2022-07-26T17:07:27.895Z,26.19
2022-07-26T17:12:29.550Z,26.05
2022-07-26T17:17:31.186Z,25.84
2022-07-26T17:22:32.765Z,25.58
2022-07-26T17:27:35.570Z,25.55
2022-07-26T17:32:38.248Z,25.40
2022-07-26T17:37:40.145Z,25.21
2022-07-26T17:42:41.826Z,24.95
2022-07-26T17:47:43.504Z,24.77
2022-07-26T17:52:45.085Z,24.59
2022-07-26T17:57:48.237Z,24.45
2022-07-26T18:02:50.365Z,24.36
2022-07-26T18:07:51.945Z,24.39
2022-07-26T18:12:54.444Z,24.45
2022-07-26T18:17:56.023Z,24.44
2022-07-26T18:22:59.347Z,24.34
2022-07-26T18:28:06.709Z,24.20
2022-07-26T18:33:11.884Z,24.06
2022-07-26T18:38:13.561Z,23.93
2022-07-26T18:43:15.187Z,23.81
2022-07-26T18:48:16.798Z,23.58
2022-07-26T18:53:19.688Z,23.30
2022-07-26T18:58:21.782Z,23.05
2022-07-26T19:03:34.559Z,22.82
2022-07-26T19:08:36.197Z,22.60
2022-07-26T19:13:38.540Z,22.44
2022-07-26T19:18:40.079Z,22.33
2022-07-26T19:23:41.804Z,22.15
2022-07-26T19:28:43.356Z,21.96
2022-07-26T19:33:44.942Z,21.75
2022-07-26T19:38:46.482Z,21.55
2022-07-26T19:43:48.039Z,21.34
2022-07-26T19:48:50.274Z,21.11
2022-07-26T19:53:52.056Z,20.89
2022-07-26T19:58:56.278Z,20.67
2022-07-26T20:03:57.859Z,20.47
2022-07-26T20:08:59.435Z,20.29
2022-07-26T20:14:01.516Z,20.11
2022-07-26T20:19:03.578Z,19.99
2022-07-26T20:24:05.615Z,19.85
2022-07-26T20:29:07.579Z,19.68
2022-07-26T20:34:09.341Z,19.50
2022-07-26T20:39:11.246Z,19.30
2022-07-26T20:44:14.224Z,19.08
2022-07-26T20:49:16.838Z,18.90
2022-07-26T20:54:18.785Z,18.70
2022-07-26T20:59:20.369Z,18.61
2022-07-26T21:04:21.930Z,18.59
2022-07-26T21:09:27.028Z,18.48
2022-07-26T21:14:28.665Z,18.35
2022-07-26T21:19:30.376Z,18.37
2022-07-26T21:24:32.153Z,18.33
2022-07-26T21:29:38.141Z,18.28
2022-07-26T21:34:41.268Z,18.28
2022-07-26T21:39:43.017Z,18.29
2022-07-26T21:44:44.578Z,18.35
2022-07-26T21:49:47.157Z,18.39
2022-07-26T21:54:48.733Z,18.41
2022-07-26T21:59:50.352Z,18.42
2022-07-26T22:04:51.916Z,18.36
2022-07-26T22:09:53.487Z,18.18
2022-07-26T22:14:55.066Z,18.14
2022-07-26T22:19:56.611Z,18.15
2022-07-26T22:25:00.588Z,18.15
2022-07-26T22:30:02.753Z,18.11
2022-07-26T22:35:04.695Z,18.02
2022-07-26T22:40:08.640Z,17.90
2022-07-26T22:45:11.750Z,17.81
2022-07-26T22:50:13.400Z,17.77
2022-07-26T22:55:15.897Z,17.75
2022-07-26T23:00:19.198Z,17.69
2022-07-26T23:05:21.094Z,17.67
2022-07-26T23:10:22.741Z,17.67
2022-07-26T23:15:24.382Z,17.60
2022-07-26T23:20:26.014Z,17.54
2022-07-26T23:25:27.591Z,17.54
2022-07-26T23:30:29.160Z,17.55
2022-07-26T23:35:30.712Z,17.59
2022-07-26T23:40:32.346Z,17.63
2022-07-26T23:45:33.952Z,17.71
2022-07-26T23:50:35.542Z,17.84
2022-07-26T23:55:37.089Z,17.93
